Alley Springs, MO

9:00 AM CST on November 26, 2014 (GMT -0600)
Country | Change Station
CLOSE
Current Station
Personal Weather Station
Location: Elk Creek, MO
Elevation: 1332 ft
Nearby Weather Stations

Elev 1332 ft 37.15 °N, 91.91 °W | Updated 3 minutes ago

Overcast
Overcast
34.0 °F
Feels Like 34 °F
N
0.0
Wind Variable Wind from SSW
Gusts 2.0 mph

Today
High -- | Low -- °F
--% Chance of Precip.
Yesterday
High -- | Low -- °F
Precip. -- in
6:56 AM 4:50 PM
Waxing Crescent, 20% visible
Pressure 30.04 in
Visibility 10.0 miles
Clouds Mostly Cloudy 4400 ft
Overcast 6000 ft
Windchill 34 °F
Dew Point 28 °F
Humidity 77%
Rainfall 0.00 in
Snow Depth Not available.
UV 0 out of 12
Pollen 1.60 out of 12
Air Quality Not available.
Flu Activity Not available.
METAR KUNO 261453Z AUTO 11005KT 10SM BKN044 OVC060 00/M05 A3001 RMK AO2 SLP171 T00001050 55002

More Conditions Fewer Conditions

Pressure 30.04 in
Visibility 10.0 miles
Clouds Mostly Cloudy 4400 ft
Overcast 6000 ft
Windchill 34 °F
Dew Point 28 °F
Humidity 77%
Rainfall 0.00 in
Snow Depth Not available.
UV 0 out of 12
Pollen 1.60 out of 12
Air Quality Not available.
Flu Activity Not available.
METAR KUNO 261453Z AUTO 11005KT 10SM BKN044 OVC060 00/M05 A3001 RMK AO2 SLP171 T00001050 55002

More Conditions Fewer Conditions

10-Day Weather Forecast

Almanac

Astronomy

Nov. 26, 2014 Rise Set
Actual Time
Civil Twilight
Nautical Twilight
Astronomical Twilight
Moon
Length of Visible Light
Length of Day
Tomorrow will be .
, % of the Moon is Illuminated

Today's Extremes

State Highs State Lows

Community

WunderPhotos

Upload Photos

1,773,769 photos uploaded!

WunderBlogs® & News

Nearby

Air Quality

  Air Quality AQ Index Pollutant
Not available.

Snow Depth

Station Depth Elevation

Earthquake Activity

City Distance Mag. Time & Date
Minimum magnitude displayed is 2.5.

Coastal Water Temperatures

Place Temperature

Nearby Weather Stations